createdAt,value
2023-03-13T00:02:10.582Z,2.77
2023-03-13T00:04:37.124Z,2.63
2023-03-13T00:07:03.902Z,3.17
2023-03-13T00:09:30.884Z,3.33
2023-03-13T00:11:57.377Z,2.53
2023-03-13T00:14:23.878Z,3.70
2023-03-13T00:16:50.396Z,3.30
2023-03-13T00:19:16.945Z,3.23
2023-03-13T00:21:43.393Z,2.97
2023-03-13T00:24:09.874Z,3.27
2023-03-13T00:26:36.411Z,4.13
2023-03-13T00:29:02.890Z,3.27
2023-03-13T00:31:29.531Z,3.47
2023-03-13T00:33:56.195Z,3.33
2023-03-13T00:36:22.650Z,3.30
2023-03-13T00:38:49.171Z,2.77
2023-03-13T00:41:15.668Z,3.10
2023-03-13T00:43:42.143Z,2.53
2023-03-13T00:46:08.824Z,2.93
2023-03-13T00:48:35.383Z,3.00
2023-03-13T00:51:01.934Z,3.20
2023-03-13T00:53:28.665Z,2.90
2023-03-13T00:55:55.141Z,2.40
2023-03-13T00:58:21.652Z,3.33
2023-03-13T01:00:48.115Z,2.83
2023-03-13T01:03:14.962Z,2.10
2023-03-13T01:05:41.556Z,2.67
2023-03-13T01:08:08.043Z,2.27
2023-03-13T01:10:34.551Z,2.97
2023-03-13T01:13:01.049Z,3.90
2023-03-13T01:15:27.595Z,3.17
2023-03-13T01:17:54.069Z,3.57
2023-03-13T01:20:20.662Z,2.00
2023-03-13T01:22:47.144Z,2.50
2023-03-13T01:25:13.663Z,3.03
2023-03-13T01:27:40.218Z,2.50
2023-03-13T01:30:06.771Z,3.90
2023-03-13T01:32:33.254Z,3.37
2023-03-13T01:34:59.894Z,2.90
2023-03-13T01:37:26.351Z,2.90
2023-03-13T01:39:52.878Z,2.93
2023-03-13T01:42:19.373Z,2.67
2023-03-13T01:44:45.902Z,3.10
2023-03-13T01:47:13.573Z,2.60
2023-03-13T01:49:40.058Z,2.87
2023-03-13T01:52:06.586Z,2.60
2023-03-13T01:54:33.057Z,2.60
2023-03-13T01:56:59.572Z,3.00
2023-03-13T01:59:26.141Z,2.90
2023-03-13T02:01:52.721Z,4.23
2023-03-13T02:04:19.327Z,3.43
2023-03-13T02:06:45.845Z,2.73
2023-03-13T02:09:12.353Z,2.37
2023-03-13T02:11:38.975Z,2.87
2023-03-13T02:14:05.493Z,2.70
2023-03-13T02:16:32.025Z,2.97
2023-03-13T02:18:58.546Z,2.33
2023-03-13T02:21:25.026Z,2.33
2023-03-13T02:23:51.518Z,3.17
2023-03-13T02:26:18.000Z,2.10
2023-03-13T02:28:44.599Z,2.13
2023-03-13T02:31:11.231Z,2.20
2023-03-13T02:33:37.798Z,3.07
2023-03-13T02:36:04.308Z,3.17
2023-03-13T02:38:30.830Z,2.63
2023-03-13T02:40:57.361Z,2.60
2023-03-13T02:43:23.826Z,2.50
2023-03-13T02:45:50.370Z,2.60
2023-03-13T02:48:16.858Z,2.67
2023-03-13T02:50:43.623Z,3.70
2023-03-13T02:53:10.140Z,2.40
2023-03-13T02:55:36.619Z,2.90
2023-03-13T02:58:03.075Z,3.30
2023-03-13T03:00:29.621Z,2.90
2023-03-13T03:02:56.180Z,2.53
2023-03-13T03:05:22.908Z,2.50
2023-03-13T03:07:49.394Z,3.73
2023-03-13T03:10:15.870Z,2.00
2023-03-13T03:12:42.342Z,2.70
2023-03-13T03:15:09.222Z,2.03
2023-03-13T03:17:35.735Z,1.90
2023-03-13T03:20:02.205Z,2.30
2023-03-13T03:22:28.666Z,2.57
2023-03-13T03:24:55.127Z,1.47
2023-03-13T03:27:21.723Z,1.40
2023-03-13T03:29:48.245Z,2.73
2023-03-13T03:32:14.753Z,1.33
2023-03-13T03:34:41.238Z,1.57
2023-03-13T03:37:07.719Z,1.33
2023-03-13T03:39:34.568Z,1.40
2023-03-13T03:42:01.141Z,1.83
2023-03-13T03:44:27.615Z,1.53
2023-03-13T03:46:54.212Z,1.17
2023-03-13T03:49:20.732Z,1.77
2023-03-13T03:51:48.506Z,1.07
2023-03-13T03:54:15.012Z,0.70
2023-03-13T03:56:41.533Z,1.37
2023-03-13T03:59:08.093Z,1.10
2023-03-13T04:01:34.597Z,1.30
2023-03-13T04:04:01.071Z,1.23
2023-03-13T04:06:27.643Z,0.70
2023-03-13T04:08:55.489Z,1.20
2023-03-13T04:11:22.356Z,2.03
2023-03-13T04:13:48.896Z,1.07
2023-03-13T04:16:15.428Z,1.07
2023-03-13T04:18:42.285Z,1.10
2023-03-13T04:21:08.781Z,1.00
2023-03-13T04:23:35.253Z,1.13
2023-03-13T04:26:01.769Z,0.93
2023-03-13T04:28:28.237Z,1.10
2023-03-13T04:30:57.195Z,1.20
2023-03-13T04:33:23.799Z,1.37
2023-03-13T04:35:50.290Z,1.10
2023-03-13T04:38:16.791Z,1.70
2023-03-13T04:40:43.268Z,1.30
2023-03-13T04:43:09.960Z,1.57
2023-03-13T04:45:36.485Z,1.20
2023-03-13T04:48:03.012Z,1.30
2023-03-13T04:50:29.537Z,2.00
2023-03-13T04:52:56.034Z,1.27
2023-03-13T04:55:22.546Z,1.20
2023-03-13T04:57:49.089Z,1.80
2023-03-13T05:00:15.559Z,1.20
2023-03-13T05:02:42.088Z,1.97
2023-03-13T05:05:08.612Z,1.30
2023-03-13T05:07:35.204Z,1.23
2023-03-13T05:10:01.667Z,1.47
2023-03-13T05:12:28.174Z,1.70
2023-03-13T05:14:54.687Z,1.37
2023-03-13T05:17:21.154Z,1.10
2023-03-13T05:19:48.739Z,1.23
2023-03-13T05:22:16.271Z,1.33
2023-03-13T05:24:42.774Z,1.00
2023-03-13T05:27:09.256Z,1.30
2023-03-13T05:29:35.833Z,1.40
2023-03-13T05:32:02.326Z,1.80
2023-03-13T05:34:28.851Z,1.67
2023-03-13T05:36:55.382Z,1.20
2023-03-13T05:39:21.993Z,1.47
2023-03-13T05:41:48.469Z,1.20
2023-03-13T05:44:15.013Z,1.20
2023-03-13T05:46:41.539Z,1.10
2023-03-13T05:49:08.107Z,1.07
2023-03-13T05:51:34.582Z,1.40
2023-03-13T05:54:01.075Z,1.77
2023-03-13T05:56:27.826Z,1.20
2023-03-13T05:58:54.303Z,1.00
2023-03-13T06:01:20.786Z,1.10
2023-03-13T06:03:47.433Z,1.30
2023-03-13T06:06:14.047Z,1.60
2023-03-13T06:08:40.609Z,1.70
2023-03-13T06:11:07.096Z,1.50
2023-03-13T06:13:33.610Z,1.50
2023-03-13T06:16:00.114Z,1.57
2023-03-13T06:18:27.014Z,1.53
2023-03-13T06:20:53.517Z,1.07
2023-03-13T06:23:20.034Z,1.90
2023-03-13T06:25:46.508Z,1.60
2023-03-13T06:28:12.969Z,1.53
2023-03-13T06:30:39.540Z,1.53
2023-03-13T06:33:06.204Z,1.17
2023-03-13T06:35:34.343Z,1.90
2023-03-13T06:38:05.336Z,1.60
2023-03-13T06:40:31.843Z,1.47
2023-03-13T06:42:58.834Z,1.63
2023-03-13T06:45:25.446Z,1.00
2023-03-13T06:47:52.199Z,1.37
2023-03-13T06:50:18.703Z,1.03
2023-03-13T06:52:51.802Z,1.40
2023-03-13T06:55:18.334Z,2.30
2023-03-13T06:57:44.868Z,1.87
2023-03-13T07:00:11.514Z,1.30
2023-03-13T07:02:38.001Z,1.80
2023-03-13T07:05:05.839Z,1.20
2023-03-13T07:07:33.470Z,1.70
2023-03-13T07:10:00.105Z,1.27
2023-03-13T07:12:26.632Z,1.63
2023-03-13T07:14:53.156Z,1.60
2023-03-13T07:17:19.700Z,1.20
2023-03-13T07:19:46.509Z,1.60
2023-03-13T07:22:13.138Z,2.03
2023-03-13T07:24:39.650Z,1.20
2023-03-13T07:27:07.931Z,2.40
2023-03-13T07:29:34.804Z,2.40
2023-03-13T07:32:01.400Z,2.50
2023-03-13T07:34:28.044Z,1.70
2023-03-13T07:36:54.514Z,2.13
2023-03-13T07:39:21.032Z,1.90
2023-03-13T07:41:47.621Z,1.93
2023-03-13T07:44:14.126Z,2.33
2023-03-13T07:46:40.777Z,1.20
2023-03-13T07:49:07.239Z,1.60
2023-03-13T07:51:43.493Z,1.50
2023-03-13T07:54:10.617Z,2.10
2023-03-13T07:56:37.171Z,2.10
2023-03-13T07:59:03.726Z,2.00
2023-03-13T08:01:31.204Z,2.17
2023-03-13T08:03:58.616Z,1.60
2023-03-13T08:06:25.239Z,2.00
2023-03-13T08:08:51.854Z,2.00
2023-03-13T08:11:18.358Z,2.10
2023-03-13T08:13:44.844Z,2.10
2023-03-13T08:16:11.600Z,1.70
2023-03-13T08:18:38.332Z,1.70
2023-03-13T08:21:04.906Z,1.40
2023-03-13T08:23:31.433Z,1.40
2023-03-13T08:25:58.005Z,1.90
2023-03-13T08:28:24.472Z,1.17
2023-03-13T08:30:51.019Z,2.00
2023-03-13T08:33:17.501Z,1.60
2023-03-13T08:35:44.166Z,1.67
2023-03-13T08:38:10.746Z,1.73
2023-03-13T08:40:37.274Z,1.80
2023-03-13T08:43:03.736Z,2.00
2023-03-13T08:45:30.202Z,1.60
2023-03-13T08:47:56.691Z,1.70
2023-03-13T08:50:23.389Z,1.73
2023-03-13T08:52:49.884Z,1.37
2023-03-13T08:55:16.361Z,1.77
2023-03-13T08:57:42.908Z,2.17
2023-03-13T09:00:11.026Z,1.73
2023-03-13T09:02:37.557Z,2.40
2023-03-13T09:05:04.468Z,2.03
2023-03-13T09:07:31.215Z,1.70
2023-03-13T09:09:57.734Z,2.03
2023-03-13T09:12:30.843Z,2.13
2023-03-13T09:14:57.778Z,2.27
2023-03-13T09:17:24.261Z,2.20
2023-03-13T09:19:59.813Z,2.07
2023-03-13T09:22:26.965Z,3.10
2023-03-13T09:24:53.474Z,2.10
2023-03-13T09:27:20.009Z,1.93
2023-03-13T09:29:46.520Z,2.63
2023-03-13T09:32:13.027Z,2.07
2023-03-13T09:34:39.515Z,2.50
2023-03-13T09:37:06.036Z,2.60
2023-03-13T09:39:32.525Z,2.33
2023-03-13T09:41:59.082Z,2.37
2023-03-13T09:44:25.569Z,2.23
2023-03-13T09:46:52.183Z,2.27
2023-03-13T09:49:18.672Z,2.10
2023-03-13T09:51:45.210Z,2.40
2023-03-13T09:54:11.693Z,1.80
2023-03-13T09:56:38.265Z,2.07
2023-03-13T09:59:04.801Z,2.83
2023-03-13T10:01:31.513Z,2.10
2023-03-13T10:03:58.065Z,2.13
2023-03-13T10:06:24.886Z,2.20
2023-03-13T10:08:52.730Z,1.70
2023-03-13T10:11:19.273Z,2.20
2023-03-13T10:13:45.789Z,2.40
2023-03-13T10:16:12.316Z,2.17
2023-03-13T10:18:38.835Z,2.10
2023-03-13T10:21:05.418Z,2.03
2023-03-13T10:23:31.947Z,2.23
2023-03-13T10:25:58.458Z,2.47
2023-03-13T10:28:24.929Z,2.00
2023-03-13T10:30:54.678Z,1.80
2023-03-13T10:33:21.239Z,1.77
2023-03-13T10:35:47.889Z,2.43
2023-03-13T10:38:14.399Z,2.27
2023-03-13T10:40:42.644Z,2.23
2023-03-13T10:43:09.150Z,1.83
2023-03-13T10:45:35.698Z,1.70
2023-03-13T10:48:02.273Z,2.40
2023-03-13T10:50:28.764Z,2.27
2023-03-13T10:52:55.324Z,2.10
2023-03-13T10:55:21.802Z,1.77
2023-03-13T10:57:48.413Z,1.67
2023-03-13T11:00:15.245Z,1.90
2023-03-13T11:02:41.826Z,1.60
2023-03-13T11:05:08.360Z,1.70
2023-03-13T11:07:35.095Z,1.77
2023-03-13T11:10:01.671Z,1.50
2023-03-13T11:12:28.262Z,1.43
2023-03-13T11:14:54.763Z,1.33
2023-03-13T11:17:21.229Z,1.33
2023-03-13T11:19:47.740Z,1.33
2023-03-13T11:22:14.481Z,1.67
2023-03-13T11:24:41.135Z,1.50
2023-03-13T11:27:07.809Z,0.90
2023-03-13T11:29:34.467Z,1.60
2023-03-13T11:32:01.049Z,1.20
2023-03-13T11:34:27.906Z,1.57
2023-03-13T11:36:55.386Z,1.37
2023-03-13T11:39:21.944Z,1.30
2023-03-13T11:41:48.504Z,1.20
2023-03-13T11:44:15.091Z,1.37
2023-03-13T11:46:41.731Z,1.10
2023-03-13T11:49:08.339Z,1.07
2023-03-13T11:51:36.217Z,1.47
2023-03-13T11:54:05.081Z,1.40
2023-03-13T11:56:31.736Z,1.23
2023-03-13T11:58:58.333Z,1.10
2023-03-13T12:01:24.938Z,0.97
2023-03-13T12:03:51.612Z,1.50
2023-03-13T12:06:27.571Z,1.23
2023-03-13T12:08:54.973Z,1.23
2023-03-13T12:11:21.487Z,1.53
2023-03-13T12:13:48.055Z,1.10
2023-03-13T12:16:14.550Z,1.17
2023-03-13T12:18:41.073Z,1.33
2023-03-13T12:21:07.623Z,1.43
2023-03-13T12:23:34.334Z,1.43
2023-03-13T12:26:01.124Z,1.13
2023-03-13T12:28:28.175Z,0.90
2023-03-13T12:30:54.859Z,1.63
2023-03-13T12:33:24.020Z,1.67
2023-03-13T12:35:50.685Z,1.47
2023-03-13T12:38:19.586Z,1.07
2023-03-13T12:40:46.153Z,1.17
2023-03-13T12:43:12.836Z,2.30
2023-03-13T12:45:39.450Z,1.60
2023-03-13T12:48:06.021Z,1.07
2023-03-13T12:50:32.591Z,0.87
2023-03-13T12:52:59.098Z,1.30
2023-03-13T12:55:25.624Z,1.23
2023-03-13T12:57:52.162Z,1.13
2023-03-13T13:00:18.643Z,1.00
2023-03-13T13:02:45.249Z,1.17
2023-03-13T13:05:11.735Z,1.03
2023-03-13T13:07:38.646Z,1.10
2023-03-13T13:10:05.250Z,1.30
2023-03-13T13:12:31.816Z,1.03
2023-03-13T13:14:58.383Z,1.20
2023-03-13T13:17:25.453Z,2.03
2023-03-13T13:19:52.053Z,1.23
2023-03-13T13:22:18.569Z,1.13
2023-03-13T13:24:47.446Z,1.30
2023-03-13T13:27:13.979Z,1.10
2023-03-13T13:29:40.482Z,0.90
2023-03-13T13:32:08.478Z,0.90
2023-03-13T13:34:35.139Z,1.07
2023-03-13T13:37:01.660Z,0.80
2023-03-13T13:39:28.211Z,0.80
2023-03-13T13:41:54.830Z,0.90
2023-03-13T13:44:21.324Z,0.90
2023-03-13T13:46:48.603Z,0.87
2023-03-13T13:49:15.229Z,0.93
2023-03-13T13:51:41.795Z,0.57
2023-03-13T13:54:09.281Z,0.67
2023-03-13T13:56:36.635Z,0.73
2023-03-13T13:59:03.161Z,0.70
2023-03-13T14:01:29.699Z,1.13
2023-03-13T14:03:56.427Z,0.60
2023-03-13T14:06:23.325Z,1.30
2023-03-13T14:08:49.811Z,0.70
2023-03-13T14:11:16.332Z,0.50
2023-03-13T14:13:43.574Z,0.80
2023-03-13T14:16:10.192Z,0.50
2023-03-13T14:18:36.750Z,0.63
2023-03-13T14:21:03.279Z,0.70
2023-03-13T14:23:29.769Z,0.57
2023-03-13T14:25:56.264Z,0.80
2023-03-13T14:28:22.846Z,0.83
2023-03-13T14:30:49.422Z,0.83
2023-03-13T14:33:15.896Z,0.90
2023-03-13T14:35:42.438Z,1.00
2023-03-13T14:38:09.006Z,0.80
2023-03-13T14:40:36.215Z,1.00
2023-03-13T14:43:02.767Z,1.10
2023-03-13T14:45:29.373Z,1.30
2023-03-13T14:47:56.269Z,0.80
2023-03-13T14:50:22.886Z,1.20
2023-03-13T14:52:49.623Z,1.50
2023-03-13T14:55:16.110Z,1.60
2023-03-13T14:57:42.631Z,1.20
2023-03-13T15:00:09.651Z,1.33
2023-03-13T15:02:36.192Z,1.37
2023-03-13T15:05:03.470Z,0.87
2023-03-13T15:07:30.195Z,0.93
2023-03-13T15:09:57.574Z,0.80
2023-03-13T15:12:24.104Z,1.17
2023-03-13T15:14:50.632Z,0.93
2023-03-13T15:17:17.232Z,1.10
2023-03-13T15:19:43.723Z,0.90
2023-03-13T15:22:13.278Z,1.00
2023-03-13T15:24:39.805Z,0.90
2023-03-13T15:27:06.304Z,1.63
2023-03-13T15:29:32.832Z,1.57
2023-03-13T15:32:04.001Z,1.30
2023-03-13T15:34:33.804Z,0.90
2023-03-13T15:37:00.307Z,1.10
2023-03-13T15:39:29.570Z,2.07
2023-03-13T15:41:56.243Z,1.60
2023-03-13T15:44:22.808Z,1.20
2023-03-13T15:46:49.504Z,0.80
2023-03-13T15:49:16.014Z,1.37
2023-03-13T15:51:42.598Z,1.13
2023-03-13T15:54:09.268Z,1.27
2023-03-13T15:56:36.086Z,1.10
2023-03-13T15:59:02.605Z,1.40
2023-03-13T16:01:29.152Z,0.90
2023-03-13T16:03:58.061Z,0.97
2023-03-13T16:06:30.940Z,0.70
2023-03-13T16:08:58.114Z,1.10
2023-03-13T16:11:24.859Z,1.27
2023-03-13T16:13:52.166Z,1.17
2023-03-13T16:16:19.569Z,1.33
2023-03-13T16:18:46.270Z,1.30
2023-03-13T16:21:12.782Z,1.70
2023-03-13T16:23:39.265Z,0.80
2023-03-13T16:26:05.751Z,1.37
2023-03-13T16:28:32.309Z,2.47
2023-03-13T16:30:58.871Z,1.30
2023-03-13T16:33:25.402Z,1.80
2023-03-13T16:35:54.515Z,1.53
2023-03-13T16:38:22.269Z,1.40
2023-03-13T16:40:48.784Z,0.80
2023-03-13T16:43:15.376Z,1.00
2023-03-13T16:45:41.904Z,1.03
2023-03-13T16:48:08.423Z,1.30
2023-03-13T16:50:34.963Z,1.70
2023-03-13T16:53:01.440Z,0.90
2023-03-13T16:55:28.626Z,1.03
2023-03-13T16:57:55.401Z,1.80
2023-03-13T17:00:21.887Z,1.07
2023-03-13T17:02:48.593Z,1.13
2023-03-13T17:05:16.030Z,0.70
2023-03-13T17:07:43.088Z,0.90
2023-03-13T17:10:09.625Z,0.90
2023-03-13T17:12:36.140Z,0.80
2023-03-13T17:15:02.912Z,1.30
2023-03-13T17:17:29.396Z,1.70
2023-03-13T17:19:56.573Z,1.53
2023-03-13T17:22:24.139Z,1.80
2023-03-13T17:24:50.695Z,1.80
2023-03-13T17:27:17.171Z,2.30
2023-03-13T17:29:43.675Z,5.33
2023-03-13T17:32:10.159Z,3.97
2023-03-13T17:34:36.726Z,2.27
2023-03-13T17:37:05.973Z,1.80
2023-03-13T17:39:32.566Z,1.93
2023-03-13T17:42:00.213Z,2.20
2023-03-13T17:44:26.748Z,1.27
2023-03-13T17:46:53.664Z,1.70
2023-03-13T17:49:23.360Z,2.53
2023-03-13T17:51:51.193Z,2.80
2023-03-13T17:54:18.438Z,2.80
2023-03-13T17:56:44.954Z,3.43
2023-03-13T17:59:11.713Z,3.13
2023-03-13T18:01:38.364Z,2.30
2023-03-13T18:04:04.995Z,3.50
2023-03-13T18:06:31.464Z,2.47
2023-03-13T18:08:58.030Z,2.53
2023-03-13T18:11:24.530Z,2.00
2023-03-13T18:13:51.052Z,3.63
2023-03-13T18:16:17.653Z,3.90
2023-03-13T18:18:44.208Z,3.97
2023-03-13T18:21:10.698Z,3.20
2023-03-13T18:23:37.237Z,3.73
2023-03-13T18:26:03.702Z,1.97
2023-03-13T18:28:30.162Z,2.97
2023-03-13T18:30:56.749Z,2.73
2023-03-13T18:33:23.216Z,2.33
2023-03-13T18:35:49.795Z,2.07
2023-03-13T18:38:18.643Z,2.77
2023-03-13T18:40:45.131Z,2.17
2023-03-13T18:43:11.592Z,2.85
2023-03-13T18:45:39.168Z,2.30
2023-03-13T18:48:05.724Z,1.60
2023-03-13T18:50:32.238Z,1.53
2023-03-13T18:52:58.759Z,2.03
2023-03-13T18:55:25.746Z,1.53
2023-03-13T18:57:52.321Z,1.60
2023-03-13T19:00:18.944Z,2.47
2023-03-13T19:02:45.591Z,2.23
2023-03-13T19:05:12.100Z,1.60
2023-03-13T19:07:38.729Z,1.80
2023-03-13T19:10:05.300Z,1.57
2023-03-13T19:12:31.846Z,1.97
2023-03-13T19:14:58.336Z,1.33
2023-03-13T19:17:27.966Z,1.57
2023-03-13T19:19:57.238Z,1.50
2023-03-13T19:22:24.403Z,1.57
2023-03-13T19:24:51.148Z,1.90
2023-03-13T19:27:17.684Z,2.27
2023-03-13T19:29:44.195Z,1.40
2023-03-13T19:32:10.710Z,1.83
2023-03-13T19:34:37.235Z,2.10
2023-03-13T19:37:03.790Z,1.77
2023-03-13T19:39:30.391Z,2.63
2023-03-13T19:41:58.561Z,1.60
2023-03-13T19:44:25.314Z,2.10
2023-03-13T19:46:51.814Z,1.70
2023-03-13T19:49:18.456Z,2.00
2023-03-13T19:51:44.925Z,1.70
2023-03-13T19:54:11.402Z,1.93
2023-03-13T19:56:39.120Z,2.57
2023-03-13T19:59:05.600Z,2.53
2023-03-13T20:01:32.152Z,2.67
2023-03-13T20:03:58.685Z,1.50
2023-03-13T20:06:25.196Z,1.60
2023-03-13T20:08:51.656Z,1.60
2023-03-13T20:11:18.194Z,1.90
2023-03-13T20:13:44.731Z,2.00
2023-03-13T20:16:11.565Z,1.87
2023-03-13T20:18:38.189Z,2.10
2023-03-13T20:21:04.692Z,1.40
2023-03-13T20:23:31.204Z,1.40
2023-03-13T20:25:57.746Z,1.50
2023-03-13T20:28:24.223Z,1.23
2023-03-13T20:30:51.686Z,1.43
2023-03-13T20:33:18.273Z,2.23
2023-03-13T20:35:44.835Z,2.30
2023-03-13T20:38:11.491Z,1.63
2023-03-13T20:40:38.114Z,1.63
2023-03-13T20:43:04.759Z,2.10
2023-03-13T20:45:31.279Z,1.93
2023-03-13T20:47:58.717Z,1.70
2023-03-13T20:50:25.349Z,1.07
2023-03-13T20:52:51.899Z,1.53
2023-03-13T20:55:18.378Z,2.30
2023-03-13T20:57:44.867Z,1.43
2023-03-13T21:00:12.755Z,1.90
2023-03-13T21:02:39.741Z,1.33
2023-03-13T21:05:06.246Z,1.47
2023-03-13T21:07:32.827Z,1.83
2023-03-13T21:09:59.299Z,1.20
2023-03-13T21:12:25.821Z,1.63
2023-03-13T21:14:54.811Z,1.30
2023-03-13T21:17:21.383Z,1.90
2023-03-13T21:19:47.868Z,2.10
2023-03-13T21:22:14.438Z,1.40
2023-03-13T21:24:40.925Z,2.00
2023-03-13T21:27:07.499Z,1.90
2023-03-13T21:29:33.997Z,2.50
2023-03-13T21:32:00.535Z,2.47
2023-03-13T21:34:27.088Z,1.33
2023-03-13T21:36:53.668Z,2.30
2023-03-13T21:39:20.631Z,1.53
2023-03-13T21:41:47.168Z,2.10
2023-03-13T21:44:15.721Z,2.10
2023-03-13T21:46:42.259Z,1.60
2023-03-13T21:49:08.766Z,2.03
2023-03-13T21:51:35.340Z,2.13
2023-03-13T21:54:01.862Z,1.90
2023-03-13T21:56:28.343Z,6.00
2023-03-13T21:58:54.902Z,3.63
2023-03-13T22:01:21.419Z,2.10
2023-03-13T22:03:48.098Z,1.53
2023-03-13T22:06:14.654Z,1.60
2023-03-13T22:08:41.313Z,1.60
2023-03-13T22:11:07.888Z,1.50
2023-03-13T22:13:34.516Z,1.57
2023-03-13T22:16:01.019Z,1.20
2023-03-13T22:18:27.503Z,1.50
2023-03-13T22:20:54.000Z,1.80
2023-03-13T22:23:20.574Z,1.30
2023-03-13T22:25:47.995Z,1.60
2023-03-13T22:28:14.549Z,1.50
2023-03-13T22:30:41.015Z,1.20
2023-03-13T22:33:07.674Z,1.93
2023-03-13T22:35:34.183Z,1.80
2023-03-13T22:38:00.708Z,1.13
2023-03-13T22:40:27.257Z,1.30
2023-03-13T22:42:54.108Z,2.10
2023-03-13T22:45:20.731Z,1.27
2023-03-13T22:47:47.216Z,1.13
2023-03-13T22:50:13.728Z,1.00
2023-03-13T22:52:40.306Z,1.03
2023-03-13T22:55:06.773Z,1.50
2023-03-13T22:57:33.282Z,0.90
2023-03-13T23:00:00.116Z,1.17
2023-03-13T23:02:26.659Z,1.20
2023-03-13T23:04:57.615Z,1.50
2023-03-13T23:07:24.133Z,1.10
2023-03-13T23:09:50.692Z,1.50
2023-03-13T23:12:17.165Z,1.60
2023-03-13T23:14:44.006Z,1.10
2023-03-13T23:17:10.673Z,1.90
2023-03-13T23:19:37.173Z,1.17
2023-03-13T23:22:03.661Z,1.00
2023-03-13T23:24:30.156Z,1.10
2023-03-13T23:26:56.704Z,1.07
2023-03-13T23:29:23.250Z,1.33
2023-03-13T23:31:49.738Z,1.23
2023-03-13T23:34:21.632Z,1.90
2023-03-13T23:36:48.140Z,1.00
2023-03-13T23:39:14.642Z,1.10
2023-03-13T23:41:41.143Z,1.50
2023-03-13T23:44:07.735Z,1.67
2023-03-13T23:46:34.199Z,1.20
2023-03-13T23:49:00.701Z,1.20
2023-03-13T23:51:27.176Z,1.10
2023-03-13T23:53:53.719Z,2.10
2023-03-13T23:56:20.267Z,1.10
2023-03-13T23:58:46.773Z,1.10
